logo tempoitalia

Diretta Meteo Volgograd, Russialunedì 31 agosto ore 09:00

Mappa
Sereno 22 °C Sereno 24 Ore: T.min 12 T.max 24
Ponente Sud-Est Km/h 14.4 Punto di rugiada: -3 °C Umidità: 18% Visibilità: 10 Km
Il sole sorge alle: 05:17 Il sole tramonta alle: 18:47
31 Agosto 2026 09:00 tempo osservato: Sereno Sereno 22 18 1025 vento: Nord SE 14.4
31 Agosto 2026 08:30 tempo osservato: Sereno Sereno 21 21 1025 vento: Nord S/SE 14.4
31 Agosto 2026 08:00 tempo osservato: Sereno Sereno 20 20 1025 vento: Nord S/SE 14.4
31 Agosto 2026 07:30 tempo osservato: Sereno Sereno 19 22 1024 vento: Nord SE 14.4
31 Agosto 2026 07:00 tempo osservato: Sereno Sereno 18 27 1024 vento: Nord SE 14.4
31 Agosto 2026 06:30 tempo osservato: Sereno Sereno 16 31 1024 vento: Nord SE 14.4
31 Agosto 2026 06:00 tempo osservato: Sereno Sereno 13 37 1024 vento: Nord SE 14.4
31 Agosto 2026 05:30 tempo osservato: Sereno Sereno 14 35 1024 vento: Nord E/SE 18
31 Agosto 2026 05:00 tempo osservato: Sereno Sereno 12 40 1024 vento: Nord SE 18
31 Agosto 2026 04:30 tempo osservato: Sereno Sereno 12 37 1024 vento: Nord SE 18
31 Agosto 2026 04:00 tempo osservato: Sereno Sereno 13 37 1024 vento: Nord E/SE 14.4
31 Agosto 2026 03:30 tempo osservato: Sereno Sereno 12 40 1024 vento: Nord E/SE 14.4
31 Agosto 2026 03:00 tempo osservato: Sereno Sereno 12 40 1024 vento: Nord E/SE 14.4
31 Agosto 2026 02:30 tempo osservato: Sereno Sereno 13 37 1024 vento: Nord E/SE 14.4
31 Agosto 2026 02:00 tempo osservato: Sereno Sereno 15 33 1024 vento: Nord E/SE 14.4
31 Agosto 2026 01:30 tempo osservato: Sereno Sereno 14 35 1024 vento: Nord E/SE 14.4
31 Agosto 2026 01:00 tempo osservato: Sereno Sereno 14 38 1024 vento: Nord E 14.4
31 Agosto 2026 00:30 tempo osservato: Sereno Sereno 14 41 1024 vento: Nord E 14.4
31 Agosto 2026 00:00 tempo osservato: Sereno Sereno 14 44 1024 vento: Nord E 10.8
30 Agosto 2026 23:30 tempo osservato: Sereno Sereno 14 47 1024 vento: Nord E 14.4
30 Agosto 2026 23:00 tempo osservato: Sereno Sereno 14 47 1024 vento: Nord E 14.4
30 Agosto 2026 22:30 tempo osservato: Sereno Sereno 14 44 1024 vento: Nord E 18
30 Agosto 2026 22:00 tempo osservato: Sereno Sereno 14 41 1023 vento: Nord E 18
30 Agosto 2026 21:30 tempo osservato: Sereno Sereno 14 41 1023 vento: Nord E 14.4
30 Agosto 2026 21:00 tempo osservato: Sereno Sereno 16 33 1023 vento: Nord E 14.4
30 Agosto 2026 20:30 tempo osservato: Sereno Sereno 18 29 1023 vento: Nord E/NE 10.8
30 Agosto 2026 20:00 tempo osservato: Sereno Sereno 19 27 1023 vento: Nord E/NE 10.8
30 Agosto 2026 19:30 tempo osservato: Sereno Sereno 19 27 1023 vento: Nord N 7.2
30 Agosto 2026 19:00 tempo osservato: Sereno Sereno 21 26 1023 vento: Nord E 10.8
30 Agosto 2026 18:30 tempo osservato: Sereno Sereno 21 28 1022 vento: Nord S/SE 10.8
30 Agosto 2026 18:00 tempo osservato: Sereno Sereno 23 25 1022 vento: Nord N 7.2
30 Agosto 2026 17:30 tempo osservato: Sereno Sereno 24 22 1022 vento: Nord E/NE 10.8
30 Agosto 2026 17:00 tempo osservato: Sereno Sereno 24 22 1022 vento: Nord N 7.2
30 Agosto 2026 16:30 tempo osservato: Sereno Sereno 24 22 1022 vento: Nord S/SE 10.8
30 Agosto 2026 16:00 tempo osservato: Sereno Sereno 24 22 1022 vento: Nord S/SE 10.8
30 Agosto 2026 15:30 tempo osservato: Sereno Sereno 24 22 1023 vento: Nord E 10.8
30 Agosto 2026 15:00 tempo osservato: Sereno Sereno 24 22 1023 vento: Nord N 7.2
30 Agosto 2026 14:30 tempo osservato: Sereno Sereno 24 25 1023 vento: Nord S 10.8
30 Agosto 2026 14:00 tempo osservato: Sereno Sereno 23 25 1023 vento: Nord SE 10.8
30 Agosto 2026 13:30 tempo osservato: Sereno Sereno 24 25 1023 vento: Nord E 10.8
30 Agosto 2026 13:00 tempo osservato: Sereno Sereno 24 25 1024 vento: Nord E/SE 14.4
30 Agosto 2026 12:30 tempo osservato: Sereno Sereno 23 28 1024 vento: Nord E/SE 14.4
30 Agosto 2026 12:00 tempo osservato: Sereno Sereno 23 28 1024 vento: Nord S/SE 14.4
30 Agosto 2026 11:30 tempo osservato: Sereno Sereno 22 30 1024 vento: Nord E 14.4
30 Agosto 2026 11:00 tempo osservato: Sereno Sereno 22 28 1024 vento: Nord E 14.4
30 Agosto 2026 10:30 tempo osservato: Sereno Sereno 22 28 1024 vento: Nord E 18
30 Agosto 2026 10:00 tempo osservato: Sereno Sereno 22 28 1024 vento: Nord E 21.6